Time;durP1;ratioP1;P1;durP2;ratioP2;P2;SDS_P1;SDS_P2;PMS_P1;PMS_P2;Temp;Humidity;BMP_temperature;BMP_pressure;BME280_temperature;BME280_humidity;BME280_pressure;Samples;Min_cycle;Max_cycle;Signal;HPM_P1;HPM_P2
2022/10/03 10:33:13;;;;;;;6.63;1.60;;;;;;;20.47;53.75;101474.81;10229271;27;43778;-69
2022/10/03 10:38:24;;;;;;;6.35;1.50;;;;;;;20.49;53.58;101480.88;10223307;27;66336;-69
2022/10/03 10:43:37;;;;;;;4.78;1.45;;;;;;;20.48;53.21;101480.06;10225588;27;66692;-69
2022/10/03 10:49:05;;;;;;;3.88;1.45;;;;;;;20.51;53.29;101478.66;10206770;27;65767;-69
2022/10/03 10:54:33;;;;;;;5.95;1.27;;;;;;;20.55;53.38;101471.44;10223009;27;66378;-68
2022/10/03 11:00:03;;;;;;;2.45;1.60;;;;;;;20.52;53.14;101480.31;10219005;27;65545;-70
2022/10/03 11:05:33;;;;;;;3.47;1.55;;;;;;;20.46;53.33;101474.00;10224086;27;67381;-71
2022/10/03 11:10:35;;;;;;;4.95;1.55;;;;;;;20.44;53.39;101479.00;10221335;27;67034;-70
2022/10/03 11:15:53;;;;;;;3.67;1.25;;;;;;;20.42;53.46;101475.69;10220767;27;65457;-70
2022/10/03 11:21:20;;;;;;;4.78;1.52;;;;;;;20.46;53.26;101474.00;10207478;27;66928;-70
2022/10/03 11:26:50;;;;;;;6.05;1.30;;;;;;;20.50;53.70;101468.75;10207599;27;66860;-73
2022/10/03 11:32:28;;;;;;;4.78;1.33;;;;;;;20.70;53.08;101465.81;10207979;27;66916;-70
2022/10/03 11:37:29;;;;;;;4.53;1.50;;;;;;;20.54;53.29;101465.13;10206560;27;66359;-69
2022/10/03 11:42:31;;;;;;;2.80;1.67;;;;;;;20.50;53.21;101460.47;10187097;27;66505;-71
2022/10/03 11:47:51;;;;;;;8.40;2.10;;;;;;;20.54;53.23;101456.03;10180079;27;66448;-78
2022/10/03 11:52:50;;;;;;;3.75;1.60;;;;;;;20.51;53.04;101454.69;10182873;27;65334;-69
2022/10/03 11:57:43;;;;;;;9.95;1.63;;;;;;;20.53;52.79;101455.19;10193769;27;66408;-70
2022/10/03 12:03:01;;;;;;;3.42;1.88;;;;;;;20.58;52.56;101440.59;10183570;27;66519;-71
2022/10/03 12:13:13;;;;;;;8.10;2.03;;;;;;;20.77;51.96;101446.19;10186573;27;66446;-68
2022/10/03 12:18:07;;;;;;;7.50;1.88;;;;;;;20.78;51.98;101445.91;10179489;27;66726;-68
2022/10/03 12:23:02;;;;;;;3.80;1.75;;;;;;;20.86;51.80;101431.50;10178126;27;65597;-70
2022/10/03 12:28:01;;;;;;;5.45;1.88;;;;;;;20.80;52.24;101440.09;10177134;27;65988;-70
2022/10/03 12:33:04;;;;;;;5.28;1.73;;;;;;;20.75;52.24;101432.69;10177305;27;65614;-69
2022/10/03 12:38:14;;;;;;;4.68;1.90;;;;;;;20.89;52.01;101430.09;10175343;27;66275;-72
2022/10/03 12:43:14;;;;;;;4.40;1.95;;;;;;;20.90;52.06;101421.50;10177368;27;65311;-80
2022/10/03 12:48:34;;;;;;;5.18;1.88;;;;;;;20.87;52.52;101419.34;10168319;27;65122;-76
2022/10/03 12:53:37;;;;;;;4.18;1.52;;;;;;;20.79;52.98;101421.94;10174335;27;65490;-68
2022/10/03 12:58:33;;;;;;;3.53;1.90;;;;;;;20.67;53.02;101416.81;10176500;27;65147;-70
2022/10/03 13:03:30;;;;;;;4.32;1.90;;;;;;;20.77;52.96;101413.94;10175724;27;65540;-69
2022/10/03 13:08:35;;;;;;;8.38;1.70;;;;;;;20.71;53.02;101419.78;10185853;27;66791;-70
2022/10/03 13:13:29;;;;;;;4.40;1.60;;;;;;;20.70;53.00;101418.16;10193861;27;65305;-69
2022/10/03 13:18:59;;;;;;;3.28;1.60;;;;;;;20.68;53.24;101415.66;10187461;27;65617;-69
2022/10/03 13:23:54;;;;;;;3.20;1.77;;;;;;;20.69;50.90;101411.81;10168857;27;65580;-67
2022/10/03 13:29:10;;;;;;;4.65;2.10;;;;;;;20.61;49.97;101412.44;10185396;27;65426;-67
2022/10/03 13:34:04;;;;;;;4.60;2.13;;;;;;;20.65;49.88;101407.19;10188870;27;66427;-67
2022/10/03 13:39:06;;;;;;;7.47;2.85;;;;;;;20.74;50.46;101405.44;10188487;27;66397;-69
2022/10/03 13:44:01;;;;;;;6.78;2.40;;;;;;;20.71;50.76;101406.84;10183370;27;65686;-67
2022/10/03 13:48:56;;;;;;;3.70;2.30;;;;;;;20.78;50.94;101400.97;10189174;27;65591;-69
2022/10/03 13:53:55;;;;;;;4.60;2.45;;;;;;;20.83;51.54;101396.22;10181257;27;65562;-77
2022/10/03 13:58:50;;;;;;;2.88;2.25;;;;;;;20.93;51.88;101393.38;10179387;27;65500;-76
2022/10/03 14:03:47;;;;;;;5.03;2.35;;;;;;;21.07;51.87;101393.50;10184491;27;65502;-76
2022/10/03 14:08:48;;;;;;;4.90;1.83;;;;;;;20.98;52.43;101388.91;10182184;27;66437;-79
2022/10/03 14:13:46;;;;;;;3.15;2.17;;;;;;;20.89;52.75;101386.00;10180504;27;65740;-69
2022/10/03 14:18:45;;;;;;;3.28;1.80;;;;;;;20.89;52.53;101386.81;10186389;27;65892;-68
2022/10/03 14:23:37;;;;;;;5.15;2.28;;;;;;;20.94;52.53;101385.94;10180343;27;66320;-69
2022/10/03 14:28:31;;;;;;;5.32;2.05;;;;;;;20.84;52.88;101386.03;10183190;27;66580;-69
2022/10/03 14:33:25;;;;;;;3.85;2.10;;;;;;;20.79;52.98;101378.66;10184565;27;65494;-69
2022/10/03 14:38:59;;;;;;;3.90;1.85;;;;;;;20.77;53.05;101388.31;10184278;27;65490;-68
2022/10/03 14:43:53;;;;;;;3.80;1.90;;;;;;;20.91;52.76;101386.50;10182133;27;65606;-70
2022/10/03 14:48:48;;;;;;;3.25;1.80;;;;;;;21.00;52.59;101381.19;10180609;27;65517;-68
2022/10/03 14:53:47;;;;;;;4.93;2.10;;;;;;;21.00;52.56;101387.50;10181677;27;65213;-67
2022/10/03 14:58:44;;;;;;;3.72;1.98;;;;;;;20.88;52.75;101376.91;10180677;27;65273;-69
2022/10/03 15:03:38;;;;;;;2.67;1.85;;;;;;;20.89;52.81;101378.56;10181895;27;66408;-67
2022/10/03 15:08:33;;;;;;;3.53;2.00;;;;;;;20.86;52.93;101375.53;10182837;27;66266;-68
2022/10/03 15:13:27;;;;;;;2.90;1.70;;;;;;;20.84;53.09;101377.75;10184047;27;65422;-69
2022/10/03 15:18:21;;;;;;;2.53;1.98;;;;;;;20.84;52.89;101378.59;10187245;27;66284;-68
2022/10/03 15:23:18;;;;;;;3.33;1.88;;;;;;;20.79;53.10;101375.88;10188674;27;65698;-68
2022/10/03 15:28:12;;;;;;;2.25;1.70;;;;;;;20.82;53.16;101368.97;10189876;27;65586;-68
2022/10/03 15:33:10;;;;;;;3.15;1.77;;;;;;;20.74;53.32;101367.69;10188319;27;66457;-68
2022/10/03 15:38:06;;;;;;;2.97;1.60;;;;;;;20.74;53.37;101367.69;10189437;27;65624;-69
2022/10/03 15:43:03;;;;;;;2.25;1.65;;;;;;;20.72;53.26;101367.16;10189967;27;65593;-68
2022/10/03 15:47:56;;;;;;;2.00;1.50;;;;;;;20.74;53.38;101367.69;10191404;27;66741;-68
2022/10/03 15:52:51;;;;;;;3.90;1.60;;;;;;;20.66;53.49;101359.22;10181963;27;65943;-68
2022/10/03 15:57:44;;;;;;;2.75;1.63;;;;;;;20.72;53.46;101352.53;10187167;27;66286;-68
2022/10/03 16:02:38;;;;;;;3.03;1.83;;;;;;;20.64;53.52;101359.50;10168738;27;66449;-69
2022/10/03 16:07:35;;;;;;;2.97;1.77;;;;;;;20.71;53.45;101361.91;10167918;27;65203;-69
2022/10/03 16:12:49;;;;;;;2.20;1.70;;;;;;;20.63;53.67;101357.03;10172831;27;66432;-67
2022/10/03 16:17:43;;;;;;;2.47;1.73;;;;;;;20.62;53.68;101358.16;10168352;27;65495;-68
2022/10/03 16:22:37;;;;;;;2.30;1.70;;;;;;;20.61;53.70;101351.00;10168671;27;65617;-70
2022/10/03 16:27:30;;;;;;;2.85;1.40;;;;;;;20.62;53.63;101349.88;10171126;27;66456;-68
2022/10/03 16:32:24;;;;;;;2.38;1.67;;;;;;;20.57;53.82;101341.69;10187853;27;66083;-68
2022/10/03 16:37:18;;;;;;;2.35;1.55;;;;;;;20.53;53.92;101349.69;10188484;27;65480;-68
2022/10/03 16:42:11;;;;;;;2.40;1.33;;;;;;;20.52;53.82;101346.13;10192113;27;65914;-69
2022/10/03 16:47:04;;;;;;;2.85;1.60;;;;;;;20.57;53.67;101344.44;10187595;27;66248;-68
2022/10/03 16:52:00;;;;;;;2.78;1.70;;;;;;;20.42;54.77;101342.66;10188682;27;65573;-75
2022/10/03 16:56:56;;;;;;;2.22;1.42;;;;;;;20.35;55.40;101339.41;10185216;27;66415;-77
2022/10/03 17:01:49;;;;;;;3.70;1.52;;;;;;;20.41;55.14;101327.22;10184369;27;66372;-78
2022/10/03 17:06:45;;;;;;;3.20;1.58;;;;;;;20.61;54.75;101327.00;10185727;27;65179;-76
2022/10/03 17:11:40;;;;;;;4.38;1.60;;;;;;;20.57;54.25;101323.22;10183789;27;66369;-71
2022/10/03 17:16:38;;;;;;;3.53;1.52;;;;;;;20.66;54.26;101326.97;10187948;27;66371;-77
2022/10/03 17:21:31;;;;;;;2.63;1.67;;;;;;;20.56;54.42;101323.50;10190378;27;66422;-78
2022/10/03 17:26:27;;;;;;;3.65;1.80;;;;;;;20.62;54.30;101323.16;10185400;27;65176;-76
2022/10/03 17:31:27;;;;;;;1.92;1.30;;;;;;;20.68;54.25;101329.41;10171314;27;65387;-76
2022/10/03 17:36:53;;;;;;;2.50;1.63;;;;;;;20.80;53.88;101327.09;10184703;27;66476;-76
2022/10/03 17:41:49;;;;;;;3.45;1.70;;;;;;;20.78;53.65;101332.06;10189307;27;66964;-73
2022/10/03 17:46:45;;;;;;;2.25;1.58;;;;;;;20.77;53.79;101323.00;10192621;27;65148;-75
2022/10/03 17:51:38;;;;;;;4.28;1.70;;;;;;;20.87;53.42;101316.53;10173911;27;65770;-71
2022/10/03 17:56:31;;;;;;;3.13;1.60;;;;;;;20.71;53.98;101323.34;10183306;27;66360;-71
2022/10/03 18:01:27;;;;;;;1.80;1.50;;;;;;;20.79;53.63;101323.53;10183015;27;66354;-70
2022/10/03 18:06:36;;;;;;;2.25;1.70;;;;;;;20.65;53.90;101324.50;10185867;27;67031;-70
2022/10/03 18:11:28;;;;;;;3.00;1.67;;;;;;;20.64;54.02;101322.88;10191022;27;66584;-72
2022/10/03 18:16:21;;;;;;;4.25;2.15;;;;;;;20.62;53.82;101325.91;10185320;27;66430;-70
2022/10/03 18:21:16;;;;;;;3.30;1.70;;;;;;;20.77;53.49;101336.75;10179689;27;65689;-70
2022/10/03 18:26:13;;;;;;;4.25;2.15;;;;;;;20.53;53.76;101333.16;10190252;27;66289;-70
2022/10/03 18:31:06;;;;;;;3.75;1.80;;;;;;;20.54;53.96;101329.28;10184448;27;64939;-70
2022/10/03 18:35:58;;;;;;;2.65;1.65;;;;;;;20.58;53.70;101324.03;10191132;27;66423;-70
2022/10/03 18:40:52;;;;;;;1.98;1.70;;;;;;;20.41;54.16;101324.47;10188098;27;66525;-70
2022/10/03 18:45:47;;;;;;;2.55;1.70;;;;;;;20.58;53.87;101322.09;10183702;27;65784;-77
2022/10/03 18:50:48;;;;;;;4.60;1.65;;;;;;;20.82;53.33;101333.16;10183826;27;66344;-71
2022/10/03 18:55:41;;;;;;;1.50;1.40;;;;;;;20.74;53.46;101320.00;10191486;27;66491;-72
2022/10/03 19:00:34;;;;;;;1.70;1.52;;;;;;;20.77;53.11;101311.97;10181518;27;65777;-73
2022/10/03 19:05:29;;;;;;;2.55;1.80;;;;;;;20.88;52.80;101318.19;10199458;27;65753;-73
2022/10/03 19:10:42;;;;;;;2.70;1.70;;;;;;;20.81;53.02;101310.28;10184317;27;66558;-72
2022/10/03 19:15:41;;;;;;;2.00;1.80;;;;;;;20.77;52.94;101308.38;10192673;27;66339;-72
2022/10/03 19:20:37;;;;;;;5.38;1.80;;;;;;;20.78;53.01;101321.06;10201182;27;64113;-72
2022/10/03 19:25:29;;;;;;;2.33;1.77;;;;;;;20.75;52.81;101314.19;10196819;27;66415;-72
2022/10/03 19:30:22;;;;;;;2.90;1.80;;;;;;;20.72;52.85;101316.72;10192105;27;66392;-72
2022/10/03 19:35:17;;;;;;;3.15;1.67;;;;;;;20.76;52.83;101310.31;10196303;27;66512;-73
2022/10/03 19:40:25;;;;;;;2.90;1.90;;;;;;;20.77;52.74;101327.69;10187829;27;65403;-71
2022/10/03 19:45:18;;;;;;;2.22;1.70;;;;;;;20.77;52.79;101324.91;10187880;27;66974;-70
2022/10/03 19:50:13;;;;;;;2.58;1.80;;;;;;;20.73;52.76;101321.94;10184226;27;65989;-71
2022/10/03 19:55:11;;;;;;;2.08;1.70;;;;;;;20.74;52.61;101306.22;10188707;27;65653;-70
2022/10/03 20:00:06;;;;;;;2.33;1.50;;;;;;;20.65;52.77;101308.81;10187213;27;65842;-72
2022/10/03 20:04:58;;;;;;;1.92;1.50;;;;;;;20.66;52.65;101310.44;10193150;27;66389;-71
2022/10/03 20:09:57;;;;;;;4.05;1.67;;;;;;;20.65;52.77;101305.22;10194032;27;66191;-71
2022/10/03 20:14:50;;;;;;;3.40;1.80;;;;;;;20.67;52.67;101295.56;10190878;27;66376;-71
2022/10/03 20:19:53;;;;;;;2.22;1.90;;;;;;;20.63;52.68;101297.25;10190992;27;66580;-72
2022/10/03 20:24:45;;;;;;;2.00;1.83;;;;;;;20.62;52.67;101311.31;10184971;27;65491;-72
2022/10/03 20:29:38;;;;;;;2.38;1.70;;;;;;;20.61;52.56;101312.41;10187264;27;66006;-72
2022/10/03 20:34:30;;;;;;;2.08;1.55;;;;;;;20.59;52.66;101304.47;10189589;27;66621;-70
